createdAt,value
2022-09-10T00:00:31.686Z,99.42
2022-09-10T00:02:58.337Z,99.64
2022-09-10T00:05:25.044Z,99.25
2022-09-10T00:07:51.757Z,99.33
2022-09-10T00:10:21.348Z,98.98
2022-09-10T00:12:48.179Z,98.41
2022-09-10T00:15:15.460Z,97.04
2022-09-10T00:17:42.104Z,96.61
2022-09-10T00:20:09.348Z,95.54
2022-09-10T00:22:35.973Z,95.02
2022-09-10T00:25:07.632Z,94.57
2022-09-10T00:27:35.950Z,95.27
2022-09-10T00:30:03.378Z,95.17
2022-09-10T00:32:29.998Z,94.46
2022-09-10T00:34:57.227Z,93.41
2022-09-10T00:37:23.811Z,93.59
2022-09-10T00:39:50.446Z,92.94
2022-09-10T00:42:19.620Z,92.24
2022-09-10T00:44:46.174Z,91.90
2022-09-10T00:47:17.615Z,91.64
2022-09-10T00:49:48.517Z,91.30
2022-09-10T00:52:15.366Z,92.13
2022-09-10T00:54:42.766Z,92.64
2022-09-10T00:57:13.997Z,91.59
2022-09-10T00:59:42.910Z,92.22
2022-09-10T01:02:09.783Z,91.61
2022-09-10T01:04:36.608Z,91.72
2022-09-10T01:07:03.287Z,92.70
2022-09-10T01:09:32.634Z,91.41
2022-09-10T01:12:08.182Z,91.96
2022-09-10T01:14:40.828Z,93.04
2022-09-10T01:17:46.738Z,92.48
2022-09-10T01:20:16.315Z,93.92
2022-09-10T01:23:27.968Z,95.06
2022-09-10T01:26:09.407Z,94.05
2022-09-10T01:28:54.480Z,94.55
2022-09-10T01:31:30.799Z,94.06
2022-09-10T01:34:03.780Z,93.57
2022-09-10T01:36:33.815Z,93.17
2022-09-10T01:39:00.777Z,92.85
2022-09-10T01:41:28.441Z,93.22
2022-09-10T01:43:55.052Z,92.52
2022-09-10T01:46:59.038Z,92.69
2022-09-10T01:49:41.119Z,93.27
2022-09-10T01:52:32.569Z,92.87
2022-09-10T01:55:10.599Z,92.79
2022-09-10T01:57:49.556Z,93.39
2022-09-10T02:00:17.224Z,92.51
2022-09-10T02:02:58.469Z,92.29
2022-09-10T02:05:26.555Z,92.10
2022-09-10T02:07:56.138Z,90.80
2022-09-10T02:10:22.922Z,90.62
2022-09-10T02:12:49.518Z,91.23
2022-09-10T02:15:18.408Z,89.91
2022-09-10T02:17:45.512Z,91.38
2022-09-10T02:20:13.282Z,91.30
2022-09-10T02:22:43.134Z,90.56
2022-09-10T02:25:10.711Z,90.77
2022-09-10T02:27:37.317Z,90.61
2022-09-10T02:30:06.122Z,90.47
2022-09-10T02:32:35.323Z,89.90
2022-09-10T02:35:05.414Z,89.73
2022-09-10T02:37:32.025Z,89.51
2022-09-10T02:39:58.666Z,89.83
2022-09-10T02:42:25.306Z,89.88
2022-09-10T02:44:51.880Z,89.05
2022-09-10T02:47:18.464Z,88.20
2022-09-10T02:49:45.075Z,87.81
2022-09-10T02:52:11.752Z,87.30
2022-09-10T02:54:38.487Z,87.25
2022-09-10T02:57:05.209Z,87.41
2022-09-10T02:59:31.784Z,86.45
2022-09-10T03:01:58.453Z,86.65
2022-09-10T03:04:25.177Z,85.68
2022-09-10T03:06:51.794Z,86.51
2022-09-10T03:09:18.398Z,87.16
2022-09-10T03:11:45.064Z,88.47
2022-09-10T03:14:11.804Z,90.21
2022-09-10T03:16:38.500Z,91.87
2022-09-10T03:19:05.132Z,92.43
2022-09-10T03:21:31.695Z,92.88
2022-09-10T03:23:58.357Z,92.41
2022-09-10T03:26:25.236Z,93.21
2022-09-10T03:28:51.998Z,93.44
2022-09-10T03:31:19.097Z,93.87
2022-09-10T03:33:45.730Z,94.02
2022-09-10T03:36:12.327Z,93.99
2022-09-10T03:38:39.341Z,91.12
2022-09-10T03:41:06.062Z,90.49
2022-09-10T03:43:32.721Z,90.54
2022-09-10T03:45:59.327Z,90.88
2022-09-10T03:48:25.949Z,90.69
2022-09-10T03:50:52.566Z,93.86
2022-09-10T03:53:19.654Z,94.00
2022-09-10T03:55:48.747Z,88.77
2022-09-10T03:58:16.668Z,87.36
2022-09-10T04:00:43.587Z,87.95
2022-09-10T04:03:10.381Z,87.99
2022-09-10T04:05:39.352Z,88.94
2022-09-10T04:08:06.402Z,88.12
2022-09-10T04:10:33.349Z,88.95
2022-09-10T04:12:59.924Z,89.30
2022-09-10T04:15:26.583Z,90.08
2022-09-10T04:17:53.236Z,90.19
2022-09-10T04:20:19.889Z,90.67
2022-09-10T04:22:47.624Z,90.40
2022-09-10T04:25:14.933Z,90.59
2022-09-10T04:27:45.740Z,89.56
2022-09-10T04:30:13.103Z,88.48
2022-09-10T04:32:39.698Z,89.08
2022-09-10T04:35:09.142Z,91.60
2022-09-10T04:37:35.811Z,92.45
2022-09-10T04:40:02.908Z,93.78
2022-09-10T04:42:29.623Z,93.12
2022-09-10T04:44:56.200Z,93.73
2022-09-10T04:47:22.778Z,93.85
2022-09-10T04:49:49.378Z,95.50
2022-09-10T04:52:15.968Z,95.55
2022-09-10T04:54:42.736Z,95.40
2022-09-10T04:57:09.698Z,94.50
2022-09-10T04:59:36.284Z,95.27
2022-09-10T05:02:03.142Z,94.59
2022-09-10T05:04:29.740Z,95.46
2022-09-10T05:06:56.320Z,94.41
2022-09-10T05:09:22.897Z,93.93
2022-09-10T05:11:49.500Z,93.20
2022-09-10T05:14:16.434Z,93.99
2022-09-10T05:16:43.049Z,95.14
2022-09-10T05:19:09.792Z,94.84
2022-09-10T05:21:36.358Z,95.02
2022-09-10T05:24:03.110Z,95.57
2022-09-10T05:26:29.798Z,94.95
2022-09-10T05:28:56.411Z,95.08
2022-09-10T05:31:23.036Z,94.62
2022-09-10T05:33:49.738Z,93.55
2022-09-10T05:36:16.388Z,94.69
2022-09-10T05:38:45.380Z,93.09
2022-09-10T05:41:12.797Z,93.38
2022-09-10T05:43:39.472Z,93.64
2022-09-10T05:46:06.116Z,93.25
2022-09-10T05:48:32.729Z,93.17
2022-09-10T05:50:59.293Z,92.41
2022-09-10T05:53:25.915Z,93.12
2022-09-10T05:55:52.487Z,92.42
2022-09-10T05:58:19.077Z,93.40
2022-09-10T06:00:45.654Z,92.60
2022-09-10T06:03:12.393Z,90.80
2022-09-10T06:05:39.027Z,91.09
2022-09-10T06:08:08.770Z,91.96
2022-09-10T06:10:35.815Z,89.95
2022-09-10T06:13:02.378Z,89.74
2022-09-10T06:15:28.984Z,88.52
2022-09-10T06:17:55.613Z,88.04
2022-09-10T06:20:22.329Z,87.94
2022-09-10T06:22:48.941Z,88.87
2022-09-10T06:25:15.519Z,87.68
2022-09-10T06:27:42.088Z,88.17
2022-09-10T06:30:08.923Z,87.32
2022-09-10T06:32:35.564Z,86.25
2022-09-10T06:35:02.121Z,85.85
2022-09-10T06:37:28.700Z,85.83
2022-09-10T06:39:55.443Z,84.13
2022-09-10T06:42:22.084Z,84.07
2022-09-10T06:44:48.649Z,85.48
2022-09-10T06:50:01.920Z,84.47
2022-09-10T06:52:29.324Z,84.07
2022-09-10T06:54:55.969Z,82.41
2022-09-10T06:57:25.911Z,79.91
2022-09-10T06:59:52.383Z,81.14
2022-09-10T07:02:21.775Z,79.97
2022-09-10T07:04:48.473Z,79.54
2022-09-10T07:07:15.127Z,76.61
2022-09-10T07:09:41.703Z,77.57
2022-09-10T07:12:08.280Z,75.79
2022-09-10T07:14:34.883Z,76.46
2022-09-10T07:17:01.463Z,73.68
2022-09-10T07:19:28.050Z,71.68
2022-09-10T07:21:54.684Z,72.44
2022-09-10T07:24:21.260Z,70.56
2022-09-10T07:26:47.917Z,70.58
2022-09-10T07:29:14.592Z,70.42
2022-09-10T07:31:41.195Z,68.36
2022-09-10T07:34:07.766Z,68.97
2022-09-10T07:36:34.375Z,68.35
2022-09-10T07:39:00.986Z,67.80
2022-09-10T07:41:30.656Z,68.22
2022-09-10T07:43:57.948Z,67.66
2022-09-10T07:46:24.721Z,67.33
2022-09-10T07:48:56.137Z,69.25
2022-09-10T07:51:22.841Z,63.63
2022-09-10T07:53:53.714Z,63.96
2022-09-10T07:56:20.485Z,59.17
2022-09-10T07:58:50.767Z,58.52
2022-09-10T08:01:17.445Z,56.50
2022-09-10T08:03:44.026Z,59.26
2022-09-10T08:06:10.611Z,57.30
2022-09-10T08:08:39.036Z,52.92
2022-09-10T08:11:17.026Z,53.49
2022-09-10T08:13:48.808Z,52.57
2022-09-10T08:16:20.933Z,51.74
2022-09-10T08:18:48.101Z,51.64
2022-09-10T08:21:18.036Z,51.88
2022-09-10T08:23:51.630Z,52.62
2022-09-10T08:26:21.352Z,55.35
2022-09-10T08:28:47.975Z,53.85
2022-09-10T08:31:15.547Z,53.11
2022-09-10T08:33:50.399Z,51.39
2022-09-10T08:36:18.574Z,51.10
2022-09-10T08:39:08.135Z,52.52
2022-09-10T08:41:37.687Z,52.88
2022-09-10T08:44:10.393Z,53.44
2022-09-10T08:46:42.978Z,52.75
2022-09-10T08:49:33.538Z,55.51
2022-09-10T08:52:15.651Z,55.53
2022-09-10T08:54:53.317Z,53.99
2022-09-10T08:57:26.602Z,55.91
2022-09-10T08:59:54.902Z,57.24
2022-09-10T09:02:57.056Z,57.93
2022-09-10T09:05:24.993Z,58.39
2022-09-10T09:07:52.164Z,58.62
2022-09-10T09:10:24.931Z,59.72
2022-09-10T09:13:16.678Z,58.67
2022-09-10T09:15:55.427Z,59.90
2022-09-10T09:18:28.388Z,60.03
2022-09-10T09:20:57.848Z,58.50
2022-09-10T09:23:29.942Z,59.05
2022-09-10T09:26:04.577Z,57.46
2022-09-10T09:28:47.806Z,57.20
2022-09-10T09:31:17.864Z,59.27
2022-09-10T09:33:45.072Z,56.12
2022-09-10T09:36:17.012Z,57.17
2022-09-10T09:38:49.386Z,57.25
2022-09-10T09:41:41.891Z,57.53
2022-09-10T09:44:28.879Z,59.51
2022-09-10T09:46:55.449Z,59.60
2022-09-10T09:49:23.412Z,59.52
2022-09-10T09:51:50.143Z,57.65
2022-09-10T09:54:56.932Z,59.47
2022-09-10T09:57:15.585Z,58.03
2022-09-10T09:59:42.314Z,55.76
2022-09-10T10:02:14.308Z,54.55
2022-09-10T10:05:01.686Z,54.06
2022-09-10T10:07:30.954Z,53.46
2022-09-10T10:10:07.233Z,52.06
2022-09-10T10:12:34.204Z,52.52
2022-09-10T10:15:01.342Z,52.54
2022-09-10T10:17:39.373Z,51.36
2022-09-10T10:20:08.080Z,50.58
2022-09-10T10:22:36.060Z,49.02
2022-09-10T10:25:05.169Z,49.38
2022-09-10T10:27:37.002Z,48.91
2022-09-10T10:30:09.554Z,48.52
2022-09-10T10:32:58.904Z,49.81
2022-09-10T10:35:31.460Z,48.63
2022-09-10T10:38:09.707Z,47.49
2022-09-10T10:41:10.381Z,47.92
2022-09-10T10:44:08.014Z,48.72
2022-09-10T10:46:56.603Z,46.47
2022-09-10T10:49:50.933Z,46.79
2022-09-10T10:52:33.138Z,45.93
2022-09-10T10:55:20.993Z,46.80
2022-09-10T10:57:57.894Z,44.81
2022-09-10T11:00:24.684Z,45.34
2022-09-10T11:03:11.199Z,44.66
2022-09-10T11:05:39.432Z,44.40
2022-09-10T11:08:17.991Z,45.45
2022-09-10T11:10:51.848Z,46.69
2022-09-10T11:13:22.040Z,46.53
2022-09-10T11:15:59.600Z,45.09
2022-09-10T11:18:50.372Z,44.51
2022-09-10T11:21:39.813Z,45.07
2022-09-10T11:24:17.245Z,45.45
2022-09-10T11:26:58.661Z,43.08
2022-09-10T11:29:25.310Z,44.41
2022-09-10T11:31:59.470Z,44.50
2022-09-10T11:34:32.492Z,45.58
2022-09-10T11:37:05.232Z,45.06
2022-09-10T11:39:42.467Z,44.04
2022-09-10T11:42:27.678Z,42.82
2022-09-10T11:45:05.546Z,42.76
2022-09-10T11:47:39.231Z,41.59
2022-09-10T11:50:15.195Z,41.44
2022-09-10T11:52:42.204Z,40.97
2022-09-10T11:55:14.320Z,40.20
2022-09-10T11:57:43.827Z,41.48
2022-09-10T12:00:11.293Z,40.17
2022-09-10T12:02:53.156Z,40.19
2022-09-10T12:05:32.891Z,40.14
2022-09-10T12:08:18.321Z,42.87
2022-09-10T12:11:06.648Z,41.09
2022-09-10T12:13:37.088Z,41.55
2022-09-10T12:16:15.388Z,42.35
2022-09-10T12:18:45.523Z,42.30
2022-09-10T12:21:34.819Z,43.95
2022-09-10T12:24:05.440Z,42.67
2022-09-10T12:26:41.582Z,43.84
2022-09-10T12:29:24.792Z,43.36
2022-09-10T12:32:09.831Z,42.37
2022-09-10T12:34:36.867Z,43.36
2022-09-10T12:37:03.344Z,41.55
2022-09-10T12:39:30.300Z,42.59
2022-09-10T12:42:01.729Z,42.27
2022-09-10T12:44:30.225Z,41.91
2022-09-10T12:47:14.880Z,42.80
2022-09-10T12:49:51.326Z,42.89
2022-09-10T12:52:35.888Z,41.63
2022-09-10T12:55:39.822Z,42.17
2022-09-10T12:58:19.283Z,41.65
2022-09-10T13:00:58.789Z,41.64
2022-09-10T13:03:27.878Z,41.66
2022-09-10T13:05:56.767Z,42.09
2022-09-10T13:08:27.861Z,39.91
2022-09-10T13:10:58.615Z,41.49
2022-09-10T13:13:56.011Z,39.97
2022-09-10T13:16:25.632Z,41.11
2022-09-10T13:18:56.952Z,41.10
2022-09-10T13:21:23.806Z,40.53
2022-09-10T13:23:51.783Z,41.65
2022-09-10T13:26:30.404Z,41.94
2022-09-10T13:28:56.938Z,39.88
2022-09-10T13:31:42.507Z,40.59
2022-09-10T13:34:15.147Z,40.73
2022-09-10T13:37:04.566Z,39.39
2022-09-10T13:39:36.272Z,39.39
2022-09-10T13:42:35.866Z,40.56
2022-09-10T13:45:22.136Z,40.40
2022-09-10T13:48:12.396Z,41.21
2022-09-10T13:51:01.625Z,41.85
2022-09-10T13:53:29.056Z,41.58
2022-09-10T13:55:58.933Z,41.88
2022-09-10T13:58:28.308Z,41.26
2022-09-10T14:00:57.373Z,42.72
2022-09-10T14:03:35.818Z,42.34
2022-09-10T14:06:02.924Z,43.48
2022-09-10T14:08:35.207Z,42.47
2022-09-10T14:11:13.685Z,43.85
2022-09-10T14:13:45.164Z,44.45
2022-09-10T14:16:16.279Z,44.63
2022-09-10T14:18:46.263Z,42.87
2022-09-10T14:21:14.211Z,43.50
2022-09-10T14:23:45.811Z,44.12
2022-09-10T14:26:15.554Z,43.30
2022-09-10T14:28:50.112Z,43.21
2022-09-10T14:31:24.801Z,44.47
2022-09-10T14:33:51.437Z,44.14
2022-09-10T14:36:21.222Z,44.27
2022-09-10T14:39:06.704Z,44.12
2022-09-10T14:41:34.472Z,43.19
2022-09-10T14:44:26.607Z,43.34
2022-09-10T14:46:57.542Z,43.29
2022-09-10T14:49:35.489Z,43.58
2022-09-10T14:52:02.898Z,42.85
2022-09-10T14:54:30.541Z,44.18
2022-09-10T14:56:57.808Z,43.82
2022-09-10T14:59:30.055Z,43.31
2022-09-10T15:01:57.433Z,44.99
2022-09-10T15:04:25.397Z,43.86
2022-09-10T15:06:56.984Z,45.49
2022-09-10T15:09:24.800Z,45.92
2022-09-10T15:12:08.286Z,43.53
2022-09-10T15:14:35.198Z,44.41
2022-09-10T15:17:02.199Z,43.94
2022-09-10T15:19:28.829Z,47.12
2022-09-10T15:21:55.411Z,44.22
2022-09-10T15:24:23.054Z,45.44
2022-09-10T15:26:49.948Z,46.69
2022-09-10T15:29:17.069Z,44.93
2022-09-10T15:31:43.709Z,45.17
2022-09-10T15:34:11.243Z,46.11
2022-09-10T15:36:40.255Z,45.44
2022-09-10T15:39:10.433Z,45.33
2022-09-10T15:41:41.192Z,44.98
2022-09-10T15:44:07.869Z,44.92
2022-09-10T15:46:34.464Z,46.06
2022-09-10T15:49:03.872Z,45.46
2022-09-10T15:51:32.603Z,45.15
2022-09-10T15:54:04.298Z,45.86
2022-09-10T15:56:33.176Z,46.19
2022-09-10T15:58:59.798Z,47.12
2022-09-10T16:01:27.128Z,46.61
2022-09-10T16:03:56.104Z,47.61
2022-09-10T16:06:24.165Z,46.85
2022-09-10T16:09:02.503Z,46.74
2022-09-10T16:11:30.730Z,47.10
2022-09-10T16:14:02.179Z,48.61
2022-09-10T16:16:31.629Z,48.00
2022-09-10T16:18:58.315Z,49.45
2022-09-10T16:21:27.521Z,48.57
2022-09-10T16:23:56.218Z,47.47
2022-09-10T16:26:28.228Z,47.04
2022-09-10T16:28:56.957Z,48.36
2022-09-10T16:31:30.306Z,48.87
2022-09-10T16:33:58.999Z,49.11
2022-09-10T16:36:26.633Z,49.22
2022-09-10T16:38:57.451Z,49.31
2022-09-10T16:41:26.442Z,49.19
2022-09-10T16:43:53.384Z,48.13
2022-09-10T16:46:20.025Z,48.57
2022-09-10T16:48:47.318Z,48.81
2022-09-10T16:51:15.681Z,48.14
2022-09-10T16:53:52.203Z,47.94
2022-09-10T16:56:18.799Z,48.42
2022-09-10T16:58:47.574Z,47.89
2022-09-10T17:01:14.769Z,46.33
2022-09-10T17:03:46.205Z,47.67
2022-09-10T17:06:17.400Z,48.15
2022-09-10T17:08:44.370Z,47.68
2022-09-10T17:11:12.061Z,48.00
2022-09-10T17:13:38.621Z,47.89
2022-09-10T17:16:28.815Z,47.69
2022-09-10T17:19:04.248Z,48.76
2022-09-10T17:21:32.002Z,48.46
2022-09-10T17:23:59.090Z,47.54
2022-09-10T17:26:26.485Z,47.89
2022-09-10T17:28:57.990Z,48.17
2022-09-10T17:31:25.068Z,48.81
2022-09-10T17:33:51.848Z,47.97
2022-09-10T17:36:18.469Z,47.92
2022-09-10T17:38:45.716Z,48.56
2022-09-10T17:41:12.536Z,49.31
2022-09-10T17:43:39.404Z,48.92
2022-09-10T17:46:07.352Z,49.17
2022-09-10T17:48:34.034Z,48.62
2022-09-10T17:51:00.639Z,48.70
2022-09-10T17:53:27.809Z,49.35
2022-09-10T17:55:54.675Z,49.66
2022-09-10T17:58:21.310Z,49.46
2022-09-10T18:00:48.265Z,50.04
2022-09-10T18:03:17.968Z,49.47
2022-09-10T18:05:45.438Z,50.49
2022-09-10T18:08:12.738Z,50.46
2022-09-10T18:10:39.650Z,50.51
2022-09-10T18:13:06.390Z,50.84
2022-09-10T18:15:32.968Z,51.41
2022-09-10T18:18:02.747Z,51.46
2022-09-10T18:20:29.573Z,51.00
2022-09-10T18:22:58.689Z,49.48
2022-09-10T18:25:28.966Z,49.87
2022-09-10T18:27:55.680Z,49.36
2022-09-10T18:30:22.267Z,49.99
2022-09-10T18:32:48.937Z,49.72
2022-09-10T18:35:15.584Z,50.60
2022-09-10T18:37:42.162Z,49.66
2022-09-10T18:40:09.471Z,49.40
2022-09-10T18:42:36.501Z,49.81
2022-09-10T18:45:03.356Z,49.46
2022-09-10T18:47:44.146Z,48.45
2022-09-10T18:50:11.403Z,49.27
2022-09-10T18:52:38.037Z,49.52
2022-09-10T18:55:05.066Z,49.39
2022-09-10T18:57:31.691Z,50.09
2022-09-10T18:59:58.422Z,49.43
2022-09-10T19:02:25.082Z,48.65
2022-09-10T19:05:10.347Z,49.99
2022-09-10T19:07:37.700Z,49.55
2022-09-10T19:10:04.656Z,50.06
2022-09-10T19:12:31.585Z,50.39
2022-09-10T19:14:58.179Z,51.66
2022-09-10T19:17:24.884Z,50.88
2022-09-10T19:19:51.460Z,50.59
2022-09-10T19:22:18.027Z,52.06
2022-09-10T19:24:54.440Z,51.10
2022-09-10T19:27:22.189Z,49.95
2022-09-10T19:29:48.796Z,51.26
2022-09-10T19:32:15.415Z,51.38
2022-09-10T19:34:42.087Z,50.94
2022-09-10T19:37:08.649Z,52.93
2022-09-10T19:39:35.337Z,52.69
2022-09-10T19:42:01.943Z,52.52
2022-09-10T19:44:28.533Z,52.76
2022-09-10T19:46:55.126Z,53.39
2022-09-10T19:49:21.699Z,52.25
2022-09-10T19:51:48.288Z,52.35
2022-09-10T19:54:14.965Z,53.31
2022-09-10T19:56:44.367Z,52.86
2022-09-10T19:59:10.971Z,50.90
2022-09-10T20:01:40.068Z,50.72
2022-09-10T20:04:09.028Z,52.20
2022-09-10T20:06:36.421Z,52.80
2022-09-10T20:09:05.041Z,52.14
2022-09-10T20:11:33.039Z,53.17
2022-09-10T20:14:01.644Z,53.58
2022-09-10T20:16:29.556Z,54.24
2022-09-10T20:18:56.236Z,54.34
2022-09-10T20:21:25.777Z,54.46
2022-09-10T20:23:53.516Z,53.62
2022-09-10T20:26:24.705Z,53.68
2022-09-10T20:28:53.902Z,53.26
2022-09-10T20:31:23.303Z,52.63
2022-09-10T20:33:54.452Z,53.15
2022-09-10T20:36:21.042Z,55.31
2022-09-10T20:38:47.634Z,53.73
2022-09-10T20:41:14.380Z,52.56
2022-09-10T20:43:41.037Z,52.98
2022-09-10T20:46:15.732Z,52.33
2022-09-10T20:48:48.365Z,52.49
2022-09-10T20:51:16.336Z,53.07
2022-09-10T20:53:43.334Z,53.65
2022-09-10T20:56:12.596Z,53.20
2022-09-10T20:58:39.510Z,52.69
2022-09-10T21:01:12.557Z,52.57
2022-09-10T21:03:40.289Z,52.11
2022-09-10T21:06:07.878Z,54.48
2022-09-10T21:08:35.609Z,54.98
2022-09-10T21:11:07.070Z,55.95
2022-09-10T21:13:34.843Z,55.50
2022-09-10T21:16:15.240Z,56.17
2022-09-10T21:18:42.378Z,56.21
2022-09-10T21:21:35.467Z,56.55
2022-09-10T21:24:08.394Z,56.76
2022-09-10T21:26:36.644Z,54.86
2022-09-10T21:29:05.896Z,54.96
2022-09-10T21:31:32.894Z,55.47
2022-09-10T21:34:03.039Z,55.32
2022-09-10T21:36:31.403Z,55.28
2022-09-10T21:39:00.269Z,55.78
2022-09-10T21:41:32.105Z,56.39
2022-09-10T21:44:00.374Z,56.51
2022-09-10T21:46:27.441Z,57.29
2022-09-10T21:48:54.361Z,56.57
2022-09-10T21:51:21.845Z,57.25
2022-09-10T21:53:52.273Z,57.64
2022-09-10T21:56:19.038Z,57.61
2022-09-10T21:58:45.748Z,57.52
2022-09-10T22:01:14.969Z,57.69
2022-09-10T22:03:41.638Z,58.79
2022-09-10T22:06:16.556Z,58.75
2022-09-10T22:08:45.674Z,59.55
2022-09-10T22:11:15.044Z,59.35
2022-09-10T22:13:42.124Z,59.41
2022-09-10T22:16:10.116Z,59.56
2022-09-10T22:18:41.740Z,59.94
2022-09-10T22:21:09.334Z,59.69
2022-09-10T22:23:37.731Z,59.68
2022-09-10T22:26:12.594Z,59.72
2022-09-10T22:28:39.408Z,58.75
2022-09-10T22:31:09.719Z,58.96
2022-09-10T22:33:40.952Z,60.12
2022-09-10T22:36:11.080Z,59.50
2022-09-10T22:38:37.813Z,60.07
2022-09-10T22:41:05.200Z,60.64
2022-09-10T22:43:34.260Z,60.55
2022-09-10T22:46:01.284Z,60.31
2022-09-10T22:48:27.980Z,60.36
2022-09-10T22:50:54.572Z,60.28
2022-09-10T22:53:22.690Z,60.33
2022-09-10T22:55:49.366Z,59.90
2022-09-10T22:58:16.196Z,60.11
2022-09-10T23:00:42.797Z,59.97
2022-09-10T23:03:09.433Z,60.13
2022-09-10T23:05:38.621Z,59.32
2022-09-10T23:08:05.298Z,59.97
2022-09-10T23:10:31.881Z,61.56
2022-09-10T23:12:58.474Z,61.33
2022-09-10T23:15:25.102Z,60.27
2022-09-10T23:17:53.915Z,60.56
2022-09-10T23:20:20.526Z,60.90
2022-09-10T23:22:48.215Z,60.60
2022-09-10T23:25:14.834Z,60.96
2022-09-10T23:27:41.392Z,62.07
2022-09-10T23:30:08.432Z,62.18
2022-09-10T23:32:35.018Z,61.57
2022-09-10T23:35:01.708Z,61.52
2022-09-10T23:37:28.278Z,62.76
2022-09-10T23:39:55.128Z,61.59
2022-09-10T23:42:21.767Z,62.70
2022-09-10T23:44:48.355Z,62.07
2022-09-10T23:47:14.942Z,62.61
2022-09-10T23:49:41.582Z,62.58
2022-09-10T23:52:08.199Z,62.95
2022-09-10T23:54:34.871Z,63.37
2022-09-10T23:57:01.459Z,63.58
2022-09-10T23:59:28.070Z,64.30
